createdAt,value
2022-12-08T00:00:54.202Z,0.50
2022-12-08T00:03:59.638Z,0.50
2022-12-08T00:07:21.731Z,0.50
2022-12-08T00:10:48.467Z,0.50
2022-12-08T00:13:48.128Z,0.50
2022-12-08T00:16:51.301Z,0.50
2022-12-08T00:19:54.361Z,0.50
2022-12-08T00:22:58.699Z,0.30
2022-12-08T00:26:04.352Z,1.00
2022-12-08T00:29:10.875Z,0.40
2022-12-08T00:32:16.301Z,0.40
2022-12-08T00:35:19.642Z,0.30
2022-12-08T00:38:24.078Z,0.30
2022-12-08T00:41:46.260Z,0.20
2022-12-08T00:44:49.242Z,0.20
2022-12-08T00:47:52.332Z,0.20
2022-12-08T00:50:55.331Z,0.20
2022-12-08T00:53:59.695Z,-0.40
2022-12-08T00:57:02.816Z,-0.10
2022-12-08T01:00:07.769Z,0.20
2022-12-08T01:03:11.636Z,0.20
2022-12-08T01:06:14.542Z,0.20
2022-12-08T01:09:19.792Z,0.20
2022-12-08T01:12:22.970Z,0.20
2022-12-08T01:15:25.912Z,0.10
2022-12-08T01:18:30.208Z,0.10
2022-12-08T01:21:33.708Z,0.00
2022-12-08T01:24:37.962Z,-0.40
2022-12-08T01:27:40.903Z,-0.20
2022-12-08T01:30:43.874Z,-0.50
2022-12-08T01:33:48.964Z,-0.20
2022-12-08T01:36:52.014Z,0.60
2022-12-08T01:39:56.413Z,-0.20
2022-12-08T01:42:59.503Z,-0.10
2022-12-08T01:46:02.445Z,-0.10
2022-12-08T01:49:09.909Z,0.00
2022-12-08T01:52:17.838Z,-0.10
2022-12-08T01:55:27.343Z,-0.10
2022-12-08T01:58:36.186Z,-0.10
2022-12-08T02:01:39.753Z,-0.90
2022-12-08T02:04:43.073Z,-0.20
2022-12-08T02:07:47.621Z,-0.20
2022-12-08T02:10:53.443Z,-0.20
2022-12-08T02:13:59.863Z,-0.10
2022-12-08T02:17:17.697Z,0.10
2022-12-08T02:20:35.634Z,0.50
2022-12-08T02:23:54.624Z,-0.10
2022-12-08T02:27:30.751Z,0.40
2022-12-08T02:30:48.230Z,1.00
2022-12-08T02:34:28.851Z,1.30
2022-12-08T02:37:38.874Z,-0.30
2022-12-08T02:40:53.381Z,0.20
2022-12-08T02:44:06.085Z,1.00
2022-12-08T02:47:14.842Z,-0.30
2022-12-08T02:50:20.017Z,-0.30
2022-12-08T02:53:23.031Z,-0.30
2022-12-08T02:56:54.479Z,-0.30
2022-12-08T03:00:08.592Z,-0.30
2022-12-08T03:03:26.164Z,-0.20
2022-12-08T03:06:38.986Z,-0.30
2022-12-08T03:09:50.985Z,-0.30
2022-12-08T03:13:01.846Z,-0.30
2022-12-08T03:16:09.064Z,-0.40
2022-12-08T03:19:19.988Z,-0.40
2022-12-08T03:22:28.670Z,0.20
2022-12-08T03:25:37.806Z,-0.50
2022-12-08T03:28:41.389Z,-0.50
2022-12-08T03:31:51.854Z,-0.20
2022-12-08T03:34:56.910Z,-0.60
2022-12-08T03:38:07.049Z,-1.20
2022-12-08T03:41:19.349Z,-0.80
2022-12-08T03:44:22.300Z,-0.80
2022-12-08T03:47:25.494Z,-0.80
2022-12-08T03:50:28.809Z,-0.80
2022-12-08T03:53:33.100Z,-0.70
2022-12-08T03:56:39.228Z,-0.50
2022-12-08T03:59:42.355Z,0.10
2022-12-08T04:02:45.548Z,-2.00
2022-12-08T04:05:48.515Z,1.00
2022-12-08T04:08:53.889Z,-0.40
2022-12-08T04:11:56.924Z,-0.40
2022-12-08T04:14:59.905Z,-0.30
2022-12-08T04:18:02.869Z,-0.30
2022-12-08T04:21:06.283Z,-0.30
2022-12-08T04:24:10.964Z,-0.30
2022-12-08T04:27:14.021Z,-0.20
2022-12-08T04:30:17.315Z,-0.30
2022-12-08T04:33:20.439Z,-0.30
2022-12-08T04:36:23.505Z,-0.30
2022-12-08T04:39:27.847Z,-0.30
2022-12-08T04:42:30.838Z,0.80
2022-12-08T04:45:34.131Z,-1.50
2022-12-08T04:48:39.715Z,-0.30
2022-12-08T04:51:42.647Z,-0.30
2022-12-08T04:54:47.014Z,0.70
2022-12-08T04:57:50.162Z,-0.30
2022-12-08T05:00:53.244Z,-0.30
2022-12-08T05:03:56.316Z,-1.60
2022-12-08T05:06:59.553Z,-0.40
2022-12-08T05:10:04.377Z,-0.50
2022-12-08T05:13:07.620Z,-0.60
2022-12-08T05:16:13.560Z,-0.70
2022-12-08T05:19:17.749Z,-0.70
2022-12-08T05:22:20.663Z,0.00
2022-12-08T05:25:25.048Z,-0.70
2022-12-08T05:28:44.204Z,-0.70
2022-12-08T05:31:47.522Z,-0.70
2022-12-08T05:34:50.532Z,-0.70
2022-12-08T05:37:53.911Z,-0.80
2022-12-08T05:40:58.554Z,-1.80
2022-12-08T05:44:01.473Z,-0.70
2022-12-08T05:47:04.710Z,-1.00
2022-12-08T05:50:09.135Z,0.60
2022-12-08T05:53:12.031Z,-0.60
2022-12-08T05:56:16.635Z,-0.70
2022-12-08T05:59:19.592Z,-0.70
2022-12-08T06:02:22.675Z,-0.70
2022-12-08T06:05:25.684Z,-0.70
2022-12-08T06:08:28.758Z,-1.40
2022-12-08T06:11:34.634Z,0.00
2022-12-08T06:14:38.415Z,-0.80
2022-12-08T06:17:41.570Z,-0.80
2022-12-08T06:20:45.711Z,-1.30
2022-12-08T06:23:50.972Z,-0.90
2022-12-08T06:26:55.345Z,-0.90
2022-12-08T06:29:58.512Z,-0.90
2022-12-08T06:33:01.561Z,-0.90
2022-12-08T06:36:04.899Z,-0.90
2022-12-08T06:39:07.906Z,-0.90
2022-12-08T06:42:30.189Z,-1.00
2022-12-08T06:45:33.197Z,-1.00
2022-12-08T06:48:36.444Z,-1.00
2022-12-08T06:51:39.488Z,-1.00
2022-12-08T06:54:42.616Z,-1.00
2022-12-08T06:57:47.063Z,-1.00
2022-12-08T07:00:50.203Z,-1.10
2022-12-08T07:03:53.233Z,-1.00
2022-12-08T07:06:56.133Z,-0.60
2022-12-08T07:09:59.520Z,-1.00
2022-12-08T07:13:04.101Z,-1.00
2022-12-08T07:16:09.250Z,-1.00
2022-12-08T07:19:12.445Z,-1.00
2022-12-08T07:22:15.376Z,-1.10
2022-12-08T07:25:19.236Z,-0.90
2022-12-08T07:28:23.773Z,-0.90
2022-12-08T07:31:28.518Z,-0.90
2022-12-08T07:34:31.555Z,-0.90
2022-12-08T07:37:35.836Z,-0.90
2022-12-08T07:40:40.120Z,-0.90
2022-12-08T07:43:45.398Z,-1.00
2022-12-08T07:46:48.400Z,-1.00
2022-12-08T07:49:51.396Z,-1.10
2022-12-08T07:52:54.491Z,0.10
2022-12-08T07:55:57.405Z,-1.00
2022-12-08T07:59:03.045Z,-1.00
2022-12-08T08:02:23.519Z,-1.00
2022-12-08T08:05:27.644Z,-0.90
2022-12-08T08:08:30.902Z,-0.90
2022-12-08T08:11:34.234Z,-0.90
2022-12-08T08:14:38.573Z,-0.90
2022-12-08T08:17:41.715Z,-0.90
2022-12-08T08:20:44.840Z,-0.90
2022-12-08T08:23:47.951Z,0.50
2022-12-08T08:26:53.408Z,-0.90
2022-12-08T08:29:58.443Z,-0.90
2022-12-08T08:33:01.889Z,-1.00
2022-12-08T08:36:09.125Z,-0.80
2022-12-08T08:39:12.535Z,-0.80
2022-12-08T08:42:15.636Z,-0.90
2022-12-08T08:45:20.029Z,-0.80
2022-12-08T08:48:23.125Z,-0.80
2022-12-08T08:51:26.205Z,-0.70
2022-12-08T08:54:30.751Z,-0.60
2022-12-08T08:57:33.723Z,-0.50
2022-12-08T09:00:38.110Z,-0.50
2022-12-08T09:03:41.423Z,-0.40
2022-12-08T09:06:45.198Z,-0.30
2022-12-08T09:09:48.355Z,-1.10
2022-12-08T09:12:51.434Z,-0.20
2022-12-08T09:15:55.836Z,-0.10
2022-12-08T09:18:59.287Z,0.00
2022-12-08T09:22:02.243Z,0.90
2022-12-08T09:25:06.242Z,0.20
2022-12-08T09:28:09.344Z,0.30
2022-12-08T09:31:14.480Z,0.30
2022-12-08T09:34:17.798Z,0.40
2022-12-08T09:37:20.789Z,0.60
2022-12-08T09:40:26.872Z,0.60
2022-12-08T09:43:59.137Z,0.70
2022-12-08T09:47:07.927Z,1.40
2022-12-08T09:50:19.413Z,0.90
2022-12-08T09:53:33.675Z,1.00
2022-12-08T09:56:40.581Z,2.10
2022-12-08T09:59:50.441Z,1.30
2022-12-08T10:02:56.412Z,1.40
2022-12-08T10:06:08.950Z,1.40
2022-12-08T10:09:31.861Z,1.50
2022-12-08T10:12:44.010Z,1.60
2022-12-08T10:15:58.547Z,1.70
2022-12-08T10:19:15.808Z,1.60
2022-12-08T10:22:24.096Z,1.80
2022-12-08T10:25:34.367Z,2.90
2022-12-08T10:28:42.959Z,2.00
2022-12-08T10:31:48.153Z,2.10
2022-12-08T10:35:07.235Z,2.20
2022-12-08T10:38:21.844Z,2.30
2022-12-08T10:41:26.212Z,2.40
2022-12-08T10:44:30.250Z,3.60
2022-12-08T10:47:37.961Z,2.60
2022-12-08T10:50:46.869Z,2.70
2022-12-08T10:53:49.999Z,3.40
2022-12-08T10:56:56.795Z,2.90
2022-12-08T11:00:00.289Z,3.00
2022-12-08T11:03:05.680Z,3.10
2022-12-08T11:06:18.919Z,3.10
2022-12-08T11:09:38.032Z,3.20
2022-12-08T11:12:45.626Z,4.10
2022-12-08T11:15:48.925Z,3.30
2022-12-08T11:18:58.882Z,3.40
2022-12-08T11:22:03.860Z,3.40
2022-12-08T11:25:13.076Z,3.50
2022-12-08T11:28:18.210Z,3.50
2022-12-08T11:31:34.876Z,3.60
2022-12-08T11:34:45.592Z,3.60
2022-12-08T11:37:50.174Z,3.70
2022-12-08T11:40:58.172Z,3.70
2022-12-08T11:44:16.022Z,3.70
2022-12-08T11:47:25.519Z,3.80
2022-12-08T11:50:37.372Z,4.30
2022-12-08T11:53:51.961Z,3.90
2022-12-08T11:56:58.825Z,3.90
2022-12-08T12:00:03.374Z,4.00
2022-12-08T12:03:18.103Z,4.00
2022-12-08T12:07:08.943Z,4.00
2022-12-08T12:10:36.621Z,4.00
2022-12-08T12:14:05.340Z,4.80
2022-12-08T12:17:26.185Z,4.10
2022-12-08T12:20:36.650Z,4.10
2022-12-08T12:23:45.982Z,4.10
2022-12-08T12:26:59.718Z,4.20
2022-12-08T12:30:08.279Z,4.10
2022-12-08T12:33:18.129Z,4.20
2022-12-08T12:36:22.258Z,4.20
2022-12-08T12:39:30.909Z,4.20
2022-12-08T12:42:43.827Z,4.20
2022-12-08T12:45:46.920Z,4.20
2022-12-08T12:48:50.247Z,4.20
2022-12-08T12:51:56.470Z,4.20
2022-12-08T12:55:23.219Z,3.10
2022-12-08T12:58:40.888Z,5.00
2022-12-08T13:01:57.703Z,4.90
2022-12-08T13:05:08.819Z,4.30
2022-12-08T13:08:24.141Z,4.40
2022-12-08T13:11:28.060Z,4.40
2022-12-08T13:14:38.906Z,4.00
2022-12-08T13:17:47.899Z,4.40
2022-12-08T13:20:58.215Z,4.40
2022-12-08T13:24:27.663Z,5.30
2022-12-08T13:27:36.010Z,4.60
2022-12-08T13:30:46.748Z,4.30
2022-12-08T13:33:49.986Z,4.20
2022-12-08T13:37:05.167Z,5.10
2022-12-08T13:40:17.476Z,4.10
2022-12-08T13:43:47.263Z,4.10
2022-12-08T13:57:33.157Z,3.80
2022-12-08T14:00:36.293Z,3.70
2022-12-08T14:04:28.456Z,3.60
2022-12-08T14:07:15.871Z,3.60
2022-12-08T14:10:24.483Z,3.50
2022-12-08T14:13:27.985Z,3.50
2022-12-08T14:16:39.360Z,3.40
2022-12-08T14:19:53.257Z,3.30
2022-12-08T14:22:58.827Z,3.30
2022-12-08T14:26:03.862Z,3.20
2022-12-08T14:29:09.886Z,3.20
2022-12-08T14:32:30.608Z,4.20
2022-12-08T14:35:37.602Z,2.40
2022-12-08T14:38:40.823Z,3.00
2022-12-08T14:42:00.870Z,3.70
2022-12-08T14:45:11.941Z,2.80
2022-12-08T14:48:25.216Z,2.70
2022-12-08T14:51:32.915Z,2.60
2022-12-08T14:54:36.651Z,2.50
2022-12-08T14:57:39.693Z,2.50
2022-12-08T15:00:48.882Z,2.40
2022-12-08T15:03:52.434Z,2.30
2022-12-08T15:07:05.863Z,2.20
2022-12-08T15:10:27.093Z,2.20
2022-12-08T15:13:31.621Z,2.10
2022-12-08T15:16:40.982Z,2.00
2022-12-08T15:19:44.235Z,2.00
2022-12-08T15:22:48.719Z,1.90
2022-12-08T15:25:52.275Z,1.80
2022-12-08T15:28:56.606Z,1.80
2022-12-08T15:32:03.090Z,1.70
2022-12-08T15:35:07.323Z,1.70
2022-12-08T15:38:24.619Z,1.60
2022-12-08T15:41:27.806Z,1.60
2022-12-08T15:44:32.673Z,1.50
2022-12-08T15:47:36.241Z,1.50
2022-12-08T15:50:39.240Z,1.40
2022-12-08T15:53:43.526Z,0.30
2022-12-08T15:57:18.162Z,1.30
2022-12-08T16:00:51.687Z,1.30
2022-12-08T16:07:28.213Z,1.10
2022-12-08T16:11:00.683Z,2.10
2022-12-08T16:13:59.548Z,1.00
2022-12-08T16:17:15.460Z,0.90
2022-12-08T16:20:24.290Z,0.80
2022-12-08T16:23:43.009Z,0.80
2022-12-08T16:30:17.784Z,0.60
2022-12-08T16:33:21.072Z,-0.60
2022-12-08T16:36:24.139Z,0.50
2022-12-08T16:39:27.309Z,2.00
2022-12-08T16:42:48.453Z,0.40
2022-12-08T16:45:52.673Z,0.30
2022-12-08T16:48:56.914Z,0.00
2022-12-08T16:51:59.883Z,0.20
2022-12-08T16:55:03.392Z,1.20
2022-12-08T16:58:08.353Z,0.80
2022-12-08T17:01:13.046Z,0.10
2022-12-08T17:04:31.387Z,0.10
2022-12-08T17:07:35.508Z,0.00
2022-12-08T17:10:40.688Z,0.50
2022-12-08T17:13:44.960Z,0.00
2022-12-08T17:16:48.237Z,1.00
2022-12-08T17:19:51.464Z,-0.10
2022-12-08T17:22:56.155Z,-0.10
2022-12-08T17:26:00.244Z,-0.10
2022-12-08T17:29:05.713Z,1.00
2022-12-08T17:32:08.813Z,-0.60
2022-12-08T17:35:13.267Z,-0.10
2022-12-08T17:38:17.307Z,-0.10
2022-12-08T17:41:20.484Z,-0.10
2022-12-08T17:44:25.375Z,-0.10
2022-12-08T17:47:29.077Z,-1.10
2022-12-08T17:50:32.136Z,-0.20
2022-12-08T17:53:37.532Z,-0.40
2022-12-08T17:56:40.668Z,-1.30
2022-12-08T17:59:44.977Z,-0.20
2022-12-08T18:02:48.037Z,-0.20
2022-12-08T18:05:51.282Z,-0.20
2022-12-08T18:08:54.314Z,-0.30
2022-12-08T18:11:57.277Z,-0.30
2022-12-08T18:15:01.819Z,-0.30
2022-12-08T18:18:05.143Z,-0.30
2022-12-08T18:21:08.490Z,-0.40
2022-12-08T18:24:20.801Z,-0.40
2022-12-08T18:27:23.952Z,-0.40
2022-12-08T18:30:28.567Z,-0.90
2022-12-08T18:33:31.622Z,-0.40
2022-12-08T18:36:35.008Z,-0.40
2022-12-08T18:39:38.462Z,-0.40
2022-12-08T18:42:41.624Z,-0.40
2022-12-08T18:45:46.766Z,-0.40
2022-12-08T18:48:52.094Z,1.00
2022-12-08T18:51:55.206Z,1.00
2022-12-08T18:55:06.241Z,-0.40
2022-12-08T18:58:10.825Z,-1.00
2022-12-08T19:01:15.749Z,1.00
2022-12-08T19:04:38.445Z,-1.30
2022-12-08T19:07:43.185Z,0.00
2022-12-08T19:10:46.318Z,-0.40
2022-12-08T19:13:49.598Z,-0.20
2022-12-08T19:16:53.966Z,-0.40
2022-12-08T19:19:57.032Z,-0.30
2022-12-08T19:23:00.098Z,1.10
2022-12-08T19:26:03.945Z,0.90
2022-12-08T19:29:06.949Z,-0.30
2022-12-08T19:32:11.890Z,-0.30
2022-12-08T19:35:14.809Z,-0.30
2022-12-08T19:38:18.300Z,-0.30
2022-12-08T19:41:39.355Z,-0.20
2022-12-08T19:44:54.588Z,0.40
2022-12-08T19:47:58.938Z,-0.20
2022-12-08T19:51:01.902Z,-0.10
2022-12-08T19:54:05.144Z,-0.10
2022-12-08T19:57:08.097Z,-0.10
2022-12-08T20:00:13.832Z,0.00
2022-12-08T20:03:22.121Z,0.10
2022-12-08T20:06:27.776Z,0.10
2022-12-08T20:09:30.812Z,0.20
2022-12-08T20:12:33.748Z,1.30
2022-12-08T20:15:36.743Z,1.40
2022-12-08T20:18:43.587Z,0.50
2022-12-08T20:21:46.790Z,0.60
2022-12-08T20:24:56.444Z,0.60
2022-12-08T20:28:02.549Z,0.70
2022-12-08T20:31:06.401Z,0.70
2022-12-08T20:34:16.110Z,0.80
2022-12-08T20:37:19.640Z,0.80
2022-12-08T20:40:22.649Z,0.80
2022-12-08T20:43:25.786Z,0.80
2022-12-08T20:46:29.198Z,0.80
2022-12-08T20:49:34.907Z,0.00
2022-12-08T20:52:38.888Z,0.80
2022-12-08T20:55:42.765Z,1.80
2022-12-08T20:58:46.111Z,0.80
2022-12-08T21:01:49.364Z,1.00
2022-12-08T21:04:53.855Z,0.80
2022-12-08T21:07:57.117Z,1.80
2022-12-08T21:11:00.263Z,0.80
2022-12-08T21:14:03.332Z,0.80
2022-12-08T21:17:07.597Z,0.20
2022-12-08T21:20:12.901Z,0.70
2022-12-08T21:23:16.920Z,0.80
2022-12-08T21:26:21.687Z,0.80
2022-12-08T21:29:24.862Z,1.80
2022-12-08T21:32:30.688Z,0.80
2022-12-08T21:35:35.722Z,0.70
2022-12-08T21:38:40.832Z,0.70
2022-12-08T21:42:02.251Z,0.70
2022-12-08T21:45:06.224Z,0.60
2022-12-08T21:48:11.726Z,1.10
2022-12-08T21:51:16.670Z,0.70
2022-12-08T21:54:19.776Z,0.60
2022-12-08T21:57:23.088Z,0.60
2022-12-08T22:00:26.447Z,0.60
2022-12-08T22:03:29.816Z,0.50
2022-12-08T22:06:34.340Z,0.60
2022-12-08T22:09:37.785Z,0.60
2022-12-08T22:12:41.198Z,0.70
2022-12-08T22:15:44.302Z,0.70
2022-12-08T22:18:47.463Z,0.80
2022-12-08T22:21:52.179Z,0.90
2022-12-08T22:24:55.403Z,0.00
2022-12-08T22:27:58.555Z,0.90
2022-12-08T22:31:02.250Z,1.00
2022-12-08T22:34:05.334Z,1.10
2022-12-08T22:37:09.757Z,1.10
2022-12-08T22:40:13.304Z,1.20
2022-12-08T22:43:16.353Z,1.20
2022-12-08T22:46:22.816Z,1.30
2022-12-08T22:49:27.067Z,1.30
2022-12-08T22:52:31.615Z,2.30
2022-12-08T22:55:35.241Z,1.40
2022-12-08T22:58:39.888Z,1.40
2022-12-08T23:01:42.971Z,1.40
2022-12-08T23:04:46.416Z,1.50
2022-12-08T23:07:52.071Z,1.00
2022-12-08T23:10:56.013Z,1.50
2022-12-08T23:14:01.031Z,1.60
2022-12-08T23:17:04.369Z,1.60
2022-12-08T23:20:09.659Z,1.50
2022-12-08T23:23:14.858Z,1.60
2022-12-08T23:26:21.976Z,2.50
2022-12-08T23:29:25.151Z,1.60
2022-12-08T23:32:28.284Z,1.70
2022-12-08T23:35:31.320Z,1.60
2022-12-08T23:38:35.843Z,1.60
2022-12-08T23:41:38.879Z,1.40
2022-12-08T23:44:42.049Z,1.60
2022-12-08T23:47:45.115Z,2.00
2022-12-08T23:50:48.230Z,1.60
2022-12-08T23:53:52.607Z,1.70
2022-12-08T23:56:55.573Z,1.70
2022-12-08T23:59:58.835Z,1.70
